createdAt,value
2023-02-11T00:01:30.615Z,96669.66
2023-02-11T00:03:59.007Z,96654.78
2023-02-11T00:06:28.173Z,96642.44
2023-02-11T00:08:55.644Z,96670.06
2023-02-11T00:11:25.696Z,96607.16
2023-02-11T00:13:52.735Z,96648.50
2023-02-11T00:16:22.981Z,96670.97
2023-02-11T00:18:50.395Z,96618.50
2023-02-11T00:21:20.812Z,96676.22
2023-02-11T00:23:48.381Z,96668.38
2023-02-11T00:26:24.734Z,96667.41
2023-02-11T00:28:53.459Z,96665.75
2023-02-11T00:31:22.629Z,96656.66
2023-02-11T00:33:50.546Z,96638.81
2023-02-11T00:36:23.328Z,96670.34
2023-02-11T00:38:55.157Z,96631.94
2023-02-11T00:41:23.278Z,96629.03
2023-02-11T00:43:53.535Z,96666.19
2023-02-11T00:46:20.952Z,96635.81
2023-02-11T00:48:48.480Z,96660.00
2023-02-11T00:51:18.358Z,96631.47
2023-02-11T00:53:47.761Z,96587.13
2023-02-11T00:56:16.994Z,96604.03
2023-02-11T00:58:44.101Z,96608.22
2023-02-11T01:01:12.680Z,96624.69
2023-02-11T01:03:40.738Z,96533.19
2023-02-11T01:06:09.158Z,96574.53
2023-02-11T01:08:40.162Z,96365.59
2023-02-11T01:11:14.113Z,96453.56
2023-02-11T01:13:42.582Z,96576.50
2023-02-11T01:16:10.854Z,96626.47
2023-02-11T01:18:39.105Z,96582.13
2023-02-11T01:21:08.891Z,96539.25
2023-02-11T01:23:36.311Z,96475.28
2023-02-11T01:26:08.092Z,96532.72
2023-02-11T01:28:45.472Z,96426.13
2023-02-11T01:31:12.987Z,96655.03
2023-02-11T01:33:43.199Z,96566.47
2023-02-11T01:36:12.152Z,96647.28
2023-02-11T01:38:41.149Z,96581.28
2023-02-11T01:41:11.744Z,96593.72
2023-02-11T01:43:45.938Z,96645.72
2023-02-11T01:46:37.031Z,96633.59
2023-02-11T01:49:11.738Z,96634.34
2023-02-11T01:51:44.081Z,96632.16
2023-02-11T01:54:41.833Z,96635.84
2023-02-11T01:57:22.266Z,96640.41
2023-02-11T01:59:54.649Z,96640.53
2023-02-11T02:02:27.202Z,96636.72
2023-02-11T02:05:02.970Z,96636.00
2023-02-11T02:07:42.454Z,96628.91
2023-02-11T02:10:17.894Z,96611.13
2023-02-11T02:12:45.204Z,96637.78
2023-02-11T02:15:23.797Z,96641.00
2023-02-11T02:18:30.998Z,96587.44
2023-02-11T02:21:22.492Z,96630.59
2023-02-11T02:24:16.989Z,96632.84
2023-02-11T02:27:02.869Z,96636.28
2023-02-11T02:29:54.234Z,96639.72
2023-02-11T02:32:32.045Z,96639.72
2023-02-11T02:35:17.543Z,96631.06
2023-02-11T02:37:59.710Z,96623.13
2023-02-11T02:40:38.724Z,96586.72
2023-02-11T02:43:09.321Z,96600.84
2023-02-11T02:45:36.646Z,96630.50
2023-02-11T02:48:03.897Z,96598.56
2023-02-11T02:50:35.600Z,96357.13
2023-02-11T02:53:24.861Z,96610.91
2023-02-11T02:55:52.051Z,96630.00
2023-02-11T02:58:56.788Z,96633.94
2023-02-11T03:01:34.601Z,96635.59
2023-02-11T03:04:19.939Z,96643.81
2023-02-11T03:06:47.156Z,96649.16
2023-02-11T03:09:49.670Z,96636.56
2023-02-11T03:12:17.895Z,96620.69
2023-02-11T03:14:46.731Z,96392.63
2023-02-11T03:17:16.229Z,96634.47
2023-02-11T03:19:45.885Z,96629.09
2023-02-11T03:22:37.240Z,96644.66
2023-02-11T03:25:05.625Z,96594.25
2023-02-11T03:27:52.115Z,96629.94
2023-02-11T03:30:19.691Z,96639.66
2023-02-11T03:32:54.905Z,96585.09
2023-02-11T03:35:26.902Z,96628.28
2023-02-11T03:38:09.263Z,96616.78
2023-02-11T03:40:39.782Z,96343.81
2023-02-11T03:43:09.862Z,96629.72
2023-02-11T03:45:38.930Z,96614.50
2023-02-11T03:48:14.750Z,96632.81
2023-02-11T03:50:46.934Z,96607.53
2023-02-11T03:53:20.961Z,96626.38
2023-02-11T03:55:50.595Z,96627.72
2023-02-11T03:58:18.045Z,96599.13
2023-02-11T04:00:45.685Z,96605.03
2023-02-11T04:03:15.627Z,96624.13
2023-02-11T04:05:42.605Z,96637.06
2023-02-11T04:08:09.749Z,96630.44
2023-02-11T04:10:37.464Z,96622.94
2023-02-11T04:13:04.459Z,96583.94
2023-02-11T04:15:43.958Z,96573.00
2023-02-11T04:18:10.993Z,96574.56
2023-02-11T04:20:40.503Z,96630.16
2023-02-11T04:23:07.544Z,96574.22
2023-02-11T04:25:34.692Z,96604.69
2023-02-11T04:28:02.108Z,96627.34
2023-02-11T04:30:29.271Z,96587.81
2023-02-11T04:32:58.522Z,96619.03
2023-02-11T04:35:25.765Z,96612.88
2023-02-11T04:37:52.741Z,96550.03
2023-02-11T04:40:19.974Z,96562.34
2023-02-11T04:42:47.035Z,96613.56
2023-02-11T04:45:16.690Z,96626.03
2023-02-11T04:47:43.778Z,96618.22
2023-02-11T04:50:11.138Z,96629.84
2023-02-11T04:52:38.160Z,96613.19
2023-02-11T04:55:05.954Z,96567.19
2023-02-11T04:57:32.946Z,96605.53
2023-02-11T05:00:00.098Z,96610.47
2023-02-11T05:02:27.694Z,96621.75
2023-02-11T05:04:54.879Z,96603.69
2023-02-11T05:07:22.105Z,96600.03
2023-02-11T05:09:52.419Z,96590.44
2023-02-11T05:12:19.590Z,96610.69
2023-02-11T05:14:49.804Z,96605.44
2023-02-11T05:17:30.052Z,96553.91
2023-02-11T05:19:57.109Z,96613.38
2023-02-11T05:22:24.120Z,96462.78
2023-02-11T05:24:51.328Z,96532.44
2023-02-11T05:27:20.927Z,96549.41
2023-02-11T05:29:47.940Z,96605.03
2023-02-11T05:32:15.089Z,96561.72
2023-02-11T05:34:42.100Z,96609.50
2023-02-11T05:37:09.280Z,96596.09
2023-02-11T05:39:36.426Z,96561.19
2023-02-11T05:42:03.638Z,96547.72
2023-02-11T05:44:30.773Z,96595.81
2023-02-11T05:46:57.883Z,96590.84
2023-02-11T05:49:24.965Z,96577.88
2023-02-11T05:51:52.228Z,96547.34
2023-02-11T05:54:19.295Z,96584.59
2023-02-11T05:56:46.420Z,96575.81
2023-02-11T05:59:14.993Z,96616.16
2023-02-11T06:01:42.752Z,96616.78
2023-02-11T06:04:09.840Z,96569.91
2023-02-11T06:06:37.170Z,96599.81
2023-02-11T06:09:07.351Z,96627.41
2023-02-11T06:11:37.072Z,96601.78
2023-02-11T06:14:05.793Z,96606.84
2023-02-11T06:16:32.709Z,96562.09
2023-02-11T06:18:59.765Z,96626.47
2023-02-11T06:21:42.465Z,96628.81
2023-02-11T06:24:11.561Z,96630.63
2023-02-11T06:26:41.632Z,96623.59
2023-02-11T06:29:09.116Z,96590.94
2023-02-11T06:31:38.829Z,96635.22
2023-02-11T06:34:06.246Z,96633.28
2023-02-11T06:36:33.810Z,96634.28
2023-02-11T06:39:01.371Z,96622.16
2023-02-11T06:41:28.393Z,96619.53
2023-02-11T06:43:55.621Z,96631.47
2023-02-11T06:46:23.060Z,96623.59
2023-02-11T06:48:50.305Z,96635.41
2023-02-11T06:51:17.599Z,96633.75
2023-02-11T06:53:46.552Z,96616.94
2023-02-11T06:56:20.316Z,96408.31
2023-02-11T06:58:48.043Z,96648.13
2023-02-11T07:01:16.462Z,96643.94
2023-02-11T07:03:45.759Z,96639.06
2023-02-11T07:06:14.402Z,96634.47
2023-02-11T07:08:43.084Z,96610.00
2023-02-11T07:11:24.906Z,96637.44
2023-02-11T07:13:53.860Z,96626.09
2023-02-11T07:16:21.549Z,96629.59
2023-02-11T07:18:49.418Z,96632.97
2023-02-11T07:21:19.457Z,96591.09
2023-02-11T07:23:48.627Z,96608.56
2023-02-11T07:26:18.762Z,96624.94
2023-02-11T07:28:46.429Z,96574.19
2023-02-11T07:31:17.057Z,96608.81
2023-02-11T07:33:46.043Z,96615.25
2023-02-11T07:36:16.878Z,96603.25
2023-02-11T07:38:44.758Z,96594.25
2023-02-11T07:41:17.901Z,96605.84
2023-02-11T07:43:45.629Z,96605.63
2023-02-11T07:46:18.397Z,96523.72
2023-02-11T07:48:45.554Z,96594.47
2023-02-11T07:51:18.637Z,96572.41
2023-02-11T07:53:46.321Z,96603.94
2023-02-11T07:56:15.417Z,96591.19
2023-02-11T07:58:43.256Z,96597.50
2023-02-11T08:01:15.640Z,96536.91
2023-02-11T08:03:43.607Z,96568.53
2023-02-11T08:06:16.073Z,96585.47
2023-02-11T08:08:43.503Z,96556.75
2023-02-11T08:11:15.873Z,96534.97
2023-02-11T08:13:44.029Z,96402.41
2023-02-11T08:16:25.785Z,96590.34
2023-02-11T08:19:05.930Z,96343.69
2023-02-11T08:21:36.140Z,96594.84
2023-02-11T08:24:04.020Z,96411.50
2023-02-11T08:26:34.800Z,96560.91
2023-02-11T08:29:06.698Z,96587.38
2023-02-11T08:31:36.407Z,96549.81
2023-02-11T08:34:03.641Z,96582.25
2023-02-11T08:36:36.037Z,96572.50
2023-02-11T08:39:18.666Z,96582.06
2023-02-11T08:41:49.607Z,96569.47
2023-02-11T08:44:18.880Z,96554.84
2023-02-11T08:46:45.880Z,96592.22
2023-02-11T08:49:18.823Z,96564.88
2023-02-11T08:51:46.796Z,96564.44
2023-02-11T08:54:14.611Z,96587.50
2023-02-11T08:56:41.952Z,96577.19
2023-02-11T08:59:13.987Z,96305.84
2023-02-11T09:01:41.578Z,96543.22
2023-02-11T09:04:12.642Z,96581.91
2023-02-11T09:06:40.322Z,96584.44
2023-02-11T09:09:11.664Z,96470.00
2023-02-11T09:11:40.756Z,96429.78
2023-02-11T09:14:08.295Z,96581.78
2023-02-11T09:16:36.629Z,96469.97
2023-02-11T09:19:09.386Z,96563.31
2023-02-11T09:21:39.169Z,96547.16
2023-02-11T09:24:09.818Z,96573.81
2023-02-11T09:26:39.468Z,96523.59
2023-02-11T09:29:07.635Z,96528.19
2023-02-11T09:31:35.368Z,96538.66
2023-02-11T09:34:05.659Z,96564.47
2023-02-11T09:36:41.014Z,96559.09
2023-02-11T09:39:15.739Z,96530.97
2023-02-11T09:41:45.266Z,96536.63
2023-02-11T09:44:44.357Z,96547.91
2023-02-11T09:47:35.777Z,96548.22
2023-02-11T09:50:18.475Z,96531.78
2023-02-11T09:53:03.178Z,96533.56
2023-02-11T09:55:42.397Z,96514.81
2023-02-11T09:58:14.671Z,96530.50
2023-02-11T10:01:10.785Z,96516.97
2023-02-11T10:04:15.567Z,96514.88
2023-02-11T10:06:51.048Z,96508.41
2023-02-11T10:09:56.816Z,96508.41
2023-02-11T10:12:48.830Z,96508.66
2023-02-11T10:15:31.174Z,96502.28
2023-02-11T10:18:07.816Z,96491.91
2023-02-11T10:20:39.406Z,96471.88
2023-02-11T10:23:25.917Z,96440.94
2023-02-11T10:25:56.439Z,96446.81
2023-02-11T10:28:35.915Z,96439.72
2023-02-11T10:31:06.475Z,96437.72
2023-02-11T10:33:48.711Z,96424.59
2023-02-11T10:36:18.268Z,96404.50
2023-02-11T10:38:45.390Z,96405.19
2023-02-11T10:41:20.065Z,96411.72
2023-02-11T10:43:57.640Z,96407.16
2023-02-11T10:46:33.203Z,96392.78
2023-02-11T10:49:00.378Z,96363.44
2023-02-11T10:51:34.202Z,96397.91
2023-02-11T10:54:04.328Z,96392.47
2023-02-11T10:56:34.603Z,96367.56
2023-02-11T10:59:21.664Z,96390.88
2023-02-11T11:02:32.197Z,96385.25
2023-02-11T11:05:03.700Z,96353.19
2023-02-11T11:07:33.831Z,96369.69
2023-02-11T11:10:36.205Z,96310.75
2023-02-11T11:13:03.607Z,96362.78
2023-02-11T11:15:32.468Z,96359.13
2023-02-11T11:18:20.985Z,96371.88
2023-02-11T11:21:00.070Z,96361.03
2023-02-11T11:23:30.040Z,96358.06
2023-02-11T11:26:14.732Z,96325.59
2023-02-11T11:28:41.604Z,96356.75
2023-02-11T11:31:19.383Z,96328.09
2023-02-11T11:33:48.248Z,96348.84
2023-02-11T11:36:22.973Z,96340.94
2023-02-11T11:38:54.364Z,96339.81
2023-02-11T11:41:27.100Z,96346.75
2023-02-11T11:43:58.247Z,96346.13
2023-02-11T11:46:38.637Z,96317.63
2023-02-11T11:49:21.105Z,96337.47
2023-02-11T11:52:11.935Z,96310.75
2023-02-11T11:54:42.624Z,96328.59
2023-02-11T11:57:17.765Z,96294.81
2023-02-11T11:59:45.337Z,96311.13
2023-02-11T12:02:22.255Z,96301.91
2023-02-11T12:05:11.924Z,96301.75
2023-02-11T12:07:51.274Z,96305.41
2023-02-11T12:10:21.282Z,96315.63
2023-02-11T12:12:53.107Z,96302.59
2023-02-11T12:15:32.653Z,96241.00
2023-02-11T12:18:10.167Z,96286.13
2023-02-11T12:20:55.727Z,96280.53
2023-02-11T12:23:42.286Z,96281.69
2023-02-11T12:26:23.028Z,96240.66
2023-02-11T12:29:27.486Z,96246.91
2023-02-11T12:32:33.634Z,96267.63
2023-02-11T12:35:40.271Z,96258.25
2023-02-11T12:38:48.509Z,96253.66
2023-02-11T12:41:51.260Z,96246.72
2023-02-11T12:44:36.438Z,96246.22
2023-02-11T12:47:10.032Z,96238.16
2023-02-11T12:49:49.054Z,96239.44
2023-02-11T12:52:25.208Z,96230.34
2023-02-11T12:54:52.174Z,96235.28
2023-02-11T12:57:26.546Z,96228.03
2023-02-11T13:00:15.552Z,96237.06
2023-02-11T13:03:05.593Z,96211.50
2023-02-11T13:05:40.624Z,96180.59
2023-02-11T13:08:29.339Z,96228.28
2023-02-11T13:11:03.932Z,96238.78
2023-02-11T13:13:51.664Z,96222.50
2023-02-11T13:16:24.890Z,96220.31
2023-02-11T13:19:03.856Z,96186.44
2023-02-11T13:21:41.011Z,96199.84
2023-02-11T13:24:44.658Z,96210.03
2023-02-11T13:27:36.632Z,96205.59
2023-02-11T13:30:35.252Z,96198.38
2023-02-11T13:33:04.842Z,96205.50
2023-02-11T13:35:36.379Z,96212.75
2023-02-11T13:38:23.923Z,96200.31
2023-02-11T13:41:35.875Z,96193.28
2023-02-11T13:44:08.589Z,96198.50
2023-02-11T13:46:49.605Z,96199.81
2023-02-11T13:49:21.294Z,96154.03
2023-02-11T13:51:49.189Z,96154.03
2023-02-11T13:54:28.557Z,96171.22
2023-02-11T13:57:20.400Z,96174.50
2023-02-11T14:00:09.929Z,96167.72
2023-02-11T14:02:56.021Z,96154.22
2023-02-11T14:05:47.452Z,96177.41
2023-02-11T14:08:42.220Z,96167.59
2023-02-11T14:11:25.261Z,96174.84
2023-02-11T14:14:01.961Z,96175.16
2023-02-11T14:16:37.997Z,96124.50
2023-02-11T14:19:06.652Z,96159.34
2023-02-11T14:21:37.589Z,96176.41
2023-02-11T14:24:05.050Z,96169.72
2023-02-11T14:26:45.165Z,96163.97
2023-02-11T14:29:25.502Z,96142.56
2023-02-11T14:32:06.655Z,96150.41
2023-02-11T14:35:01.932Z,96157.41
2023-02-11T14:38:03.866Z,96163.50
2023-02-11T14:40:47.209Z,96162.53
2023-02-11T14:43:21.065Z,96167.72
2023-02-11T14:45:53.866Z,96107.91
2023-02-11T14:48:27.406Z,96131.03
2023-02-11T14:51:01.670Z,96162.63
2023-02-11T14:53:31.957Z,96160.97
2023-02-11T14:55:59.366Z,96135.06
2023-02-11T14:58:33.150Z,96147.41
2023-02-11T15:01:35.204Z,96160.72
2023-02-11T15:04:05.411Z,96160.22
2023-02-11T15:06:42.520Z,96155.34
2023-02-11T15:09:43.526Z,96138.53
2023-02-11T15:12:24.748Z,96146.94
2023-02-11T15:14:55.627Z,96121.28
2023-02-11T15:17:25.854Z,96026.28
2023-02-11T15:19:55.663Z,96151.38
2023-02-11T15:22:29.192Z,96114.84
2023-02-11T15:25:10.361Z,96136.22
2023-02-11T15:27:44.971Z,96133.97
2023-02-11T15:30:24.326Z,96130.97
2023-02-11T15:33:03.034Z,96129.47
2023-02-11T15:35:36.704Z,96130.34
2023-02-11T15:38:08.392Z,96125.75
2023-02-11T15:40:37.385Z,96132.56
2023-02-11T15:43:09.933Z,96110.38
2023-02-11T15:45:53.623Z,95991.44
2023-02-11T15:48:28.692Z,96086.28
2023-02-11T15:51:00.719Z,96097.63
2023-02-11T15:53:43.431Z,96126.53
2023-02-11T15:56:29.790Z,96114.06
2023-02-11T15:59:02.754Z,96094.31
2023-02-11T16:01:34.056Z,96134.31
2023-02-11T16:04:01.955Z,96119.38
2023-02-11T16:06:37.083Z,96136.31
2023-02-11T16:09:11.205Z,96141.25
2023-02-11T16:11:55.397Z,96118.72
2023-02-11T16:14:33.095Z,96108.91
2023-02-11T16:17:22.588Z,96145.91
2023-02-11T16:19:51.986Z,96136.84
2023-02-11T16:22:30.233Z,96135.19
2023-02-11T16:24:59.571Z,96128.34
2023-02-11T16:27:30.501Z,96132.47
2023-02-11T16:29:58.738Z,96097.94
2023-02-11T16:32:28.490Z,96107.63
2023-02-11T16:34:59.127Z,96137.25
2023-02-11T16:37:26.365Z,96141.03
2023-02-11T16:39:56.844Z,96086.25
2023-02-11T16:42:25.168Z,96120.66
2023-02-11T16:44:52.336Z,95948.78
2023-02-11T16:47:28.333Z,96152.09
2023-02-11T16:49:56.296Z,96101.22
2023-02-11T16:52:23.567Z,96137.44
2023-02-11T16:54:50.833Z,96144.16
2023-02-11T16:57:21.773Z,96137.25
2023-02-11T16:59:49.300Z,96152.75
2023-02-11T17:02:28.436Z,96154.72
2023-02-11T17:04:56.492Z,96153.06
2023-02-11T17:07:26.162Z,96143.84
2023-02-11T17:09:53.332Z,96122.94
2023-02-11T17:12:21.200Z,96125.41
2023-02-11T17:14:48.155Z,96127.06
2023-02-11T17:17:16.260Z,96141.38
2023-02-11T17:19:43.867Z,96116.88
2023-02-11T17:22:12.108Z,96121.97
2023-02-11T17:24:39.057Z,96124.44
2023-02-11T17:27:06.113Z,96133.50
2023-02-11T17:29:33.044Z,96136.13
2023-02-11T17:32:00.065Z,96132.00
2023-02-11T17:34:29.248Z,96139.75
2023-02-11T17:36:58.061Z,96084.25
2023-02-11T17:39:26.109Z,96128.38
2023-02-11T17:41:53.456Z,96145.34
2023-02-11T17:44:20.556Z,96132.19
2023-02-11T17:46:47.510Z,96122.47
2023-02-11T17:49:16.050Z,96160.63
2023-02-11T17:51:43.243Z,96145.16
2023-02-11T17:54:16.908Z,96143.53
2023-02-11T17:56:45.146Z,96158.16
2023-02-11T17:59:13.387Z,96164.75
2023-02-11T18:01:42.254Z,96167.06
2023-02-11T18:04:13.757Z,96167.53
2023-02-11T18:06:41.925Z,96172.13
2023-02-11T18:09:09.609Z,96181.03
2023-02-11T18:11:39.563Z,96153.56
2023-02-11T18:14:08.524Z,96166.88
2023-02-11T18:16:39.130Z,96172.63
2023-02-11T18:19:07.741Z,96161.25
2023-02-11T18:21:35.851Z,96173.78
2023-02-11T18:24:06.736Z,96173.06
2023-02-11T18:26:34.733Z,96131.59
2023-02-11T18:29:02.298Z,96156.44
2023-02-11T18:31:29.779Z,96159.59
2023-02-11T18:33:56.661Z,96159.75
2023-02-11T18:36:23.645Z,96106.22
2023-02-11T18:38:54.314Z,96145.63
2023-02-11T18:41:21.648Z,96101.63
2023-02-11T18:43:49.019Z,96129.84
2023-02-11T18:46:17.215Z,96137.88
2023-02-11T18:48:45.362Z,96140.16
2023-02-11T18:51:18.804Z,96114.81
2023-02-11T18:53:46.285Z,96110.91
2023-02-11T18:56:23.464Z,96123.91
2023-02-11T18:58:51.475Z,96110.25
2023-02-11T19:01:22.782Z,96096.88
2023-02-11T19:03:50.652Z,96133.19
2023-02-11T19:06:32.154Z,96101.25
2023-02-11T19:09:01.952Z,96132.09
2023-02-11T19:11:50.171Z,96112.00
2023-02-11T19:14:21.614Z,96130.59
2023-02-11T19:16:55.804Z,96076.16
2023-02-11T19:19:30.312Z,96135.03
2023-02-11T19:21:59.194Z,96097.66
2023-02-11T19:24:27.837Z,96104.25
2023-02-11T19:26:58.103Z,96125.34
2023-02-11T19:29:26.221Z,96111.72
2023-02-11T19:31:53.509Z,96117.97
2023-02-11T19:34:21.719Z,96073.88
2023-02-11T19:36:50.388Z,96059.56
2023-02-11T19:39:18.515Z,96089.88
2023-02-11T19:41:45.623Z,96105.50
2023-02-11T19:44:14.103Z,96089.03
2023-02-11T19:46:41.237Z,96080.50
2023-02-11T19:49:10.024Z,96096.09
2023-02-11T19:51:39.621Z,96059.13
2023-02-11T19:54:07.697Z,96076.53
2023-02-11T19:56:35.106Z,96095.00
2023-02-11T19:59:03.854Z,96085.59
2023-02-11T20:01:31.327Z,96089.06
2023-02-11T20:03:58.506Z,96087.72
2023-02-11T20:06:31.436Z,96084.13
2023-02-11T20:09:05.349Z,96083.94
2023-02-11T20:11:33.464Z,96096.47
2023-02-11T20:14:01.005Z,96092.84
2023-02-11T20:16:45.129Z,96080.69
2023-02-11T20:19:18.163Z,96081.00
2023-02-11T20:21:47.654Z,96085.59
2023-02-11T20:24:15.490Z,96082.97
2023-02-11T20:26:43.046Z,96076.06
2023-02-11T20:29:10.129Z,96076.56
2023-02-11T20:31:37.372Z,96071.78
2023-02-11T20:34:04.507Z,96069.81
2023-02-11T20:36:35.633Z,96060.09
2023-02-11T20:39:05.471Z,96050.06
2023-02-11T20:41:35.110Z,96053.84
2023-02-11T20:44:07.604Z,96060.28
2023-02-11T20:46:37.135Z,96036.41
2023-02-11T20:49:05.407Z,96031.00
2023-02-11T20:51:36.717Z,96051.38
2023-02-11T20:54:06.100Z,96017.69
2023-02-11T20:56:37.118Z,96029.84
2023-02-11T20:59:06.204Z,96029.69
2023-02-11T21:01:36.855Z,96027.22
2023-02-11T21:04:11.765Z,96005.50
2023-02-11T21:06:41.782Z,95979.34
2023-02-11T21:09:13.165Z,96020.31
2023-02-11T21:11:40.973Z,95997.78
2023-02-11T21:14:08.503Z,96014.56
2023-02-11T21:16:35.637Z,95994.19
2023-02-11T21:19:03.134Z,96002.88
2023-02-11T21:21:30.310Z,95974.44
2023-02-11T21:23:58.628Z,95984.47
2023-02-11T21:26:25.870Z,95990.03
2023-02-11T21:28:53.310Z,95869.09
2023-02-11T21:31:26.559Z,95987.91
2023-02-11T21:33:59.314Z,95974.59
2023-02-11T21:36:28.685Z,95972.13
2023-02-11T21:38:55.840Z,95983.78
2023-02-11T21:41:24.831Z,95971.63
2023-02-11T21:43:52.119Z,95990.56
2023-02-11T21:46:21.287Z,95961.94
2023-02-11T21:48:51.113Z,95971.50
2023-02-11T21:51:21.550Z,95969.84
2023-02-11T21:53:53.629Z,95986.94
2023-02-11T21:56:21.743Z,95946.00
2023-02-11T21:58:53.885Z,95979.88
2023-02-11T22:01:24.073Z,95987.09
2023-02-11T22:03:51.244Z,95977.06
2023-02-11T22:06:22.879Z,95983.47
2023-02-11T22:08:50.465Z,95984.28
2023-02-11T22:11:17.718Z,95978.72
2023-02-11T22:13:45.573Z,95983.63
2023-02-11T22:16:15.874Z,95994.16
2023-02-11T22:18:46.745Z,95995.13
2023-02-11T22:21:16.906Z,95978.03
2023-02-11T22:23:44.463Z,96003.34
2023-02-11T22:26:17.816Z,95989.56
2023-02-11T22:28:46.242Z,96008.31
2023-02-11T22:31:25.257Z,96006.31
2023-02-11T22:33:52.912Z,96006.16
2023-02-11T22:36:30.582Z,95997.59
2023-02-11T22:39:11.702Z,95953.50
2023-02-11T22:41:40.732Z,95981.47
2023-02-11T22:44:08.552Z,96003.19
2023-02-11T22:46:35.889Z,95996.88
2023-02-11T22:49:04.484Z,96002.47
2023-02-11T22:51:31.730Z,95998.03
2023-02-11T22:54:06.052Z,95950.88
2023-02-11T22:56:34.806Z,95987.25
2023-02-11T22:59:04.708Z,95978.53
2023-02-11T23:01:32.135Z,95977.69
2023-02-11T23:04:00.393Z,95950.06
2023-02-11T23:06:27.936Z,96002.84
2023-02-11T23:08:55.248Z,96005.28
2023-02-11T23:11:28.435Z,95991.19
2023-02-11T23:13:55.722Z,95940.25
2023-02-11T23:16:32.668Z,95988.56
2023-02-11T23:19:01.881Z,95974.13
2023-02-11T23:21:32.300Z,95968.03
2023-02-11T23:24:02.271Z,95954.88
2023-02-11T23:26:29.578Z,95969.34
2023-02-11T23:28:58.851Z,95963.75
2023-02-11T23:31:34.073Z,95961.09
2023-02-11T23:34:01.639Z,95946.66
2023-02-11T23:36:29.086Z,95954.88
2023-02-11T23:38:56.187Z,95947.81
2023-02-11T23:41:24.301Z,95962.94
2023-02-11T23:43:53.512Z,95960.47
2023-02-11T23:46:24.570Z,95957.00
2023-02-11T23:48:52.443Z,95948.31
2023-02-11T23:51:19.621Z,95955.38
2023-02-11T23:53:49.280Z,95974.59
2023-02-11T23:56:20.017Z,95954.88
2023-02-11T23:58:52.173Z,95945.19
